Weather at Licenciado y General Ignacio Lopez Rayon Airport

Public forecast

Using degrees Celsius for public forecast. Weather courtesy of forecast.io.

Current aviation weather report (METAR) for Licenciado y General Ignacio Lopez Rayon Airport

Retrieved 2021/04/12 11:42 UTC (20 minutes ago):

MMPN 121142Z 00000KT 7SM SKC 14/07 A3002 RMK HZY CI RTS

Aviation forecast (TAF) for Licenciado y General Ignacio Lopez Rayon Airport

Forecast is more than 12 hours old.

Retrieved 2021/04/11 18:28 UTC (18 hours ago):

TAF MMPN 111621Z 1118/1218 20010KT P6SM SKC TEMPO 1122/1202 SCT030CB FM120600 00000KT P6SM SKC FM121200 00000KT P6SM SKC